Coeur d'Alene, Idaho
Current Conditions -  °F | °C
As of 11:15 PM on Saturday 25 Oct 2014 (Local Time) from KCOE Reporting Station
Overcast Overcast  
Wind Chill: 14°   Ceiling: 6000
Heat Index: 14°   Visibility: 10mi
Dew Point:   Wind: 25mph
Humidity: 55%   Direction: 210°SSW
Pressure: 29.63"   Gusts: 37mph
Location:  47.68°N, 116.79°W
Report Text: KCOE 260615Z AUTO 21022G32KT 10SM FEW047 BKN060 OVC085 14/05 A2963 RMK AO1
Loading
Personal Weather Stations






























Interactive Weather Map
Tropical Storm Tracking
New forecast layout! Learn more

10-Day Weather Forecast

Advertisements
Track Severe Weather on mobile